Novocherkassk, Russia
Current Conditions -  °F | °C
As of 5:00 PM on Tuesday 27 Jan 2015 (Local Time) from URRR Reporting Station
Overcast Overcast  
Wind Chill: 19°   Ceiling: 900
Heat Index: 28°   Visibility: 6mi
Dew Point: 27°   Wind: 11mph
Humidity: 93%   Direction: 110°ESE
Pressure: 30.15"   Gusts: NA
Location:  47.42°N, 40.09°E
Report Text: URRR 271400Z 11005MPS 9999 BKN009 OVC100 M02/M03 Q1021 04310060NOSIG
Loading
Personal Weather Stations






























Interactive Weather Map New forecast layout! Learn more

10-Day Weather Forecast

Advertisements
Track Severe Weather on mobile